createdAt,value
2022-11-04T00:02:07.308Z,10.10
2022-11-04T00:04:36.800Z,10.10
2022-11-04T00:07:29.546Z,10.00
2022-11-04T00:13:10.517Z,9.90
2022-11-04T00:16:14.286Z,10.00
2022-11-04T00:19:17.325Z,10.00
2022-11-04T00:22:03.724Z,10.00
2022-11-04T00:24:49.619Z,10.00
2022-11-04T00:33:31.010Z,10.00
2022-11-04T00:36:01.441Z,10.00
2022-11-04T00:38:30.081Z,10.00
2022-11-04T00:40:59.987Z,10.00
2022-11-04T00:43:28.397Z,10.00
2022-11-04T00:45:56.797Z,10.00
2022-11-04T00:48:29.456Z,10.00
2022-11-04T00:51:00.267Z,10.00
2022-11-04T00:53:31.888Z,9.90
2022-11-04T00:56:01.106Z,9.90
2022-11-04T00:58:30.605Z,9.90
2022-11-04T01:01:00.982Z,9.90
2022-11-04T01:03:29.283Z,9.90
2022-11-04T01:06:01.296Z,10.00
2022-11-04T01:08:45.645Z,10.00
2022-11-04T01:11:14.506Z,10.00
2022-11-04T01:13:45.990Z,10.00
2022-11-04T01:16:14.558Z,10.00
2022-11-04T01:19:01.346Z,10.00
2022-11-04T01:24:36.316Z,10.00
2022-11-04T01:27:04.486Z,10.00
2022-11-04T01:29:35.217Z,9.90
2022-11-04T01:32:03.809Z,9.90
2022-11-04T01:34:32.393Z,9.90
2022-11-04T01:37:02.509Z,9.80
2022-11-04T01:39:32.103Z,9.80
2022-11-04T01:44:52.578Z,9.70
2022-11-04T01:47:28.542Z,9.60
2022-11-04T01:50:01.503Z,9.60
2022-11-04T01:52:37.859Z,9.60
2022-11-04T01:55:14.076Z,9.60
2022-11-04T01:57:46.490Z,9.50
2022-11-04T02:00:17.430Z,9.50
2022-11-04T02:02:56.190Z,9.50
2022-11-04T02:05:24.762Z,9.50
2022-11-04T02:08:00.330Z,9.50
2022-11-04T02:10:31.489Z,9.50
2022-11-04T02:13:01.270Z,9.50
2022-11-04T02:15:40.227Z,9.50
2022-11-04T02:18:38.151Z,9.40
2022-11-04T02:21:59.226Z,9.40
2022-11-04T02:25:17.433Z,9.40
2022-11-04T02:28:13.825Z,9.50
2022-11-04T02:30:50.473Z,9.50
2022-11-04T02:33:26.958Z,9.50
2022-11-04T02:36:06.589Z,9.50
2022-11-04T02:38:44.082Z,9.50
2022-11-04T02:41:18.599Z,9.50
2022-11-04T02:43:58.919Z,9.50
2022-11-04T02:46:38.690Z,9.50
2022-11-04T02:49:15.712Z,9.60
2022-11-04T02:51:50.330Z,9.60
2022-11-04T02:54:24.459Z,9.70
2022-11-04T02:56:55.563Z,9.80
2022-11-04T02:59:31.937Z,9.80
2022-11-04T03:02:05.352Z,9.80
2022-11-04T03:04:38.523Z,9.80
2022-11-04T03:09:47.527Z,9.90
2022-11-04T03:12:45.043Z,9.90
2022-11-04T03:15:23.226Z,9.90
2022-11-04T03:17:59.568Z,9.90
2022-11-04T03:20:33.088Z,9.90
2022-11-04T03:23:01.942Z,9.90
2022-11-04T03:25:36.658Z,9.80
2022-11-04T03:28:13.725Z,9.80
2022-11-04T03:30:46.695Z,9.80
2022-11-04T03:33:27.012Z,9.70
2022-11-04T03:35:56.167Z,9.70
2022-11-04T03:38:29.634Z,9.80
2022-11-04T03:41:00.386Z,9.70
2022-11-04T03:43:30.472Z,9.60
2022-11-04T03:45:59.187Z,9.50
2022-11-04T03:48:29.126Z,9.50
2022-11-04T03:50:58.648Z,9.50
2022-11-04T03:53:29.974Z,9.70
2022-11-04T03:56:17.706Z,9.70
2022-11-04T03:58:59.304Z,9.80
2022-11-04T04:01:34.742Z,9.80
2022-11-04T04:10:29.088Z,9.80
2022-11-04T04:13:02.010Z,9.90
2022-11-04T04:15:43.907Z,9.80
2022-11-04T04:18:15.524Z,9.80
2022-11-04T04:20:48.617Z,9.70
2022-11-04T04:23:38.860Z,9.60
2022-11-04T04:26:27.955Z,9.60
2022-11-04T04:28:58.146Z,9.40
2022-11-04T04:31:45.498Z,9.40
2022-11-04T04:34:13.750Z,9.30
2022-11-04T04:36:47.348Z,9.30
2022-11-04T04:39:36.556Z,9.40
2022-11-04T04:42:23.013Z,9.50
2022-11-04T04:45:06.362Z,9.60
2022-11-04T04:47:43.633Z,9.70
2022-11-04T04:50:14.375Z,9.70
2022-11-04T04:52:47.168Z,9.70
2022-11-04T04:55:16.641Z,9.70
2022-11-04T04:57:46.191Z,9.80
2022-11-04T05:00:18.873Z,9.90
2022-11-04T05:02:47.273Z,9.90
2022-11-04T05:07:45.678Z,10.00
2022-11-04T05:10:16.138Z,10.00
2022-11-04T05:13:02.224Z,10.10
2022-11-04T05:15:31.106Z,10.10
2022-11-04T05:18:07.796Z,10.10
2022-11-04T05:20:40.476Z,10.00
2022-11-04T05:23:13.650Z,10.00
2022-11-04T05:25:43.187Z,10.00
2022-11-04T05:28:11.633Z,10.00
2022-11-04T05:30:40.084Z,10.10
2022-11-04T05:33:12.131Z,10.10
2022-11-04T05:35:40.763Z,10.10
2022-11-04T05:38:10.867Z,10.10
2022-11-04T05:40:39.158Z,10.10
2022-11-04T05:43:08.122Z,10.10
2022-11-04T05:45:36.465Z,10.10
2022-11-04T05:48:06.497Z,10.00
2022-11-04T05:50:35.383Z,10.00
2022-11-04T05:53:03.510Z,10.00
2022-11-04T05:55:33.220Z,10.00
2022-11-04T05:58:01.729Z,10.00
2022-11-04T06:00:30.566Z,10.00
2022-11-04T06:02:58.713Z,10.00
2022-11-04T06:05:27.860Z,10.10
2022-11-04T06:07:56.660Z,10.00
2022-11-04T06:10:25.525Z,10.00
2022-11-04T06:12:55.278Z,10.00
2022-11-04T06:15:23.520Z,10.00
2022-11-04T06:17:51.619Z,10.00
2022-11-04T06:20:19.950Z,10.00
2022-11-04T06:22:48.097Z,10.00
2022-11-04T06:25:16.678Z,10.00
2022-11-04T06:27:44.819Z,10.00
2022-11-04T06:30:14.824Z,10.00
2022-11-04T06:32:43.085Z,9.90
2022-11-04T06:35:11.273Z,10.00
2022-11-04T06:37:39.750Z,10.10
2022-11-04T06:40:09.447Z,10.00
2022-11-04T06:42:37.626Z,10.00
2022-11-04T06:45:06.628Z,10.00
2022-11-04T06:47:36.860Z,10.00
2022-11-04T06:50:05.533Z,10.00
2022-11-04T06:52:38.038Z,10.00
2022-11-04T06:55:10.675Z,10.00
2022-11-04T06:57:38.852Z,10.00
2022-11-04T07:00:07.902Z,10.00
2022-11-04T07:02:38.903Z,10.00
2022-11-04T07:05:08.150Z,10.00
2022-11-04T07:07:36.529Z,10.00
2022-11-04T07:10:04.918Z,10.00
2022-11-04T07:12:33.077Z,10.00
2022-11-04T07:15:01.180Z,10.00
2022-11-04T07:17:29.300Z,9.90
2022-11-04T07:19:58.822Z,10.00
2022-11-04T07:22:27.290Z,9.90
2022-11-04T07:24:55.416Z,9.90
2022-11-04T07:27:23.630Z,10.00
2022-11-04T07:29:51.865Z,10.00
2022-11-04T07:32:20.198Z,9.90
2022-11-04T07:34:48.426Z,9.90
2022-11-04T07:37:18.184Z,10.00
2022-11-04T07:39:46.293Z,10.00
2022-11-04T07:42:14.373Z,9.90
2022-11-04T07:44:42.549Z,9.90
2022-11-04T07:47:10.681Z,9.90
2022-11-04T07:49:39.044Z,10.00
2022-11-04T07:52:07.238Z,10.00
2022-11-04T07:54:37.497Z,10.10
2022-11-04T07:57:05.657Z,10.20
2022-11-04T07:59:33.843Z,10.30
2022-11-04T08:02:02.279Z,10.30
2022-11-04T08:04:30.756Z,10.40
2022-11-04T08:06:58.870Z,10.50
2022-11-04T08:09:27.234Z,10.60
2022-11-04T08:11:56.804Z,10.70
2022-11-04T08:14:24.855Z,10.80
2022-11-04T08:16:52.938Z,10.90
2022-11-04T08:19:21.080Z,11.00
2022-11-04T08:21:49.224Z,11.10
2022-11-04T08:24:17.569Z,11.20
2022-11-04T08:26:46.360Z,11.40
2022-11-04T08:29:16.238Z,11.60
2022-11-04T08:31:44.558Z,11.80
2022-11-04T08:34:14.858Z,12.00
2022-11-04T08:36:44.137Z,12.10
2022-11-04T08:39:13.288Z,12.30
2022-11-04T08:41:45.405Z,12.20
2022-11-04T08:44:15.784Z,12.20
2022-11-04T08:46:45.808Z,12.30
2022-11-04T08:49:19.625Z,12.40
2022-11-04T08:51:56.590Z,12.60
2022-11-04T08:54:25.040Z,12.70
2022-11-04T08:56:53.279Z,12.80
2022-11-04T08:59:23.051Z,13.00
2022-11-04T09:01:51.360Z,13.40
2022-11-04T09:04:19.792Z,13.80
2022-11-04T09:06:48.729Z,13.80
2022-11-04T09:09:19.035Z,13.70
2022-11-04T09:11:47.987Z,13.70
2022-11-04T09:14:18.326Z,13.60
2022-11-04T09:16:47.867Z,13.50
2022-11-04T09:19:16.472Z,13.40
2022-11-04T09:21:44.829Z,13.20
2022-11-04T09:24:13.224Z,13.00
2022-11-04T09:26:41.479Z,12.90
2022-11-04T09:29:09.931Z,12.80
2022-11-04T09:31:39.232Z,12.70
2022-11-04T09:34:09.075Z,12.60
2022-11-04T09:36:37.324Z,12.50
2022-11-04T09:39:05.800Z,12.50
2022-11-04T09:41:57.920Z,12.40
2022-11-04T09:44:30.017Z,12.40
2022-11-04T09:47:03.099Z,12.40
2022-11-04T09:49:37.801Z,12.30
2022-11-04T09:52:14.212Z,12.20
2022-11-04T09:54:49.898Z,12.10
2022-11-04T09:57:20.647Z,12.10
2022-11-04T09:59:49.384Z,12.00
2022-11-04T10:02:42.624Z,12.00
2022-11-04T10:05:58.360Z,12.00
2022-11-04T10:08:39.666Z,11.90
2022-11-04T10:11:14.707Z,11.90
2022-11-04T10:13:54.831Z,11.90
2022-11-04T10:16:38.591Z,11.90
2022-11-04T10:19:47.524Z,11.90
2022-11-04T10:22:24.769Z,11.90
2022-11-04T10:25:03.838Z,11.80
2022-11-04T10:27:36.469Z,11.80
2022-11-04T10:30:09.490Z,11.80
2022-11-04T10:32:43.906Z,11.80
2022-11-04T10:35:23.170Z,11.80
2022-11-04T10:37:56.158Z,11.80
2022-11-04T10:40:29.137Z,11.80
2022-11-04T10:43:00.558Z,11.80
2022-11-04T10:45:37.530Z,11.70
2022-11-04T10:48:09.863Z,11.70
2022-11-04T10:50:42.585Z,11.60
2022-11-04T10:53:17.512Z,11.50
2022-11-04T10:55:52.658Z,11.50
2022-11-04T10:58:25.118Z,11.50
2022-11-04T11:00:54.653Z,11.50
2022-11-04T11:03:34.400Z,11.40
2022-11-04T11:06:22.187Z,11.40
2022-11-04T11:08:53.715Z,11.30
2022-11-04T11:11:39.183Z,11.20
2022-11-04T11:14:21.008Z,11.10
2022-11-04T11:17:47.256Z,11.00
2022-11-04T11:20:38.455Z,10.90
2022-11-04T11:23:10.419Z,10.70
2022-11-04T11:25:50.795Z,10.50
2022-11-04T11:28:41.160Z,10.30
2022-11-04T11:31:28.047Z,10.20
2022-11-04T11:41:03.547Z,10.00
2022-11-04T11:46:26.215Z,10.00
2022-11-04T11:49:01.010Z,10.00
2022-11-04T11:51:32.708Z,10.00
2022-11-04T11:54:33.582Z,10.00
2022-11-04T11:57:16.640Z,9.90
2022-11-04T12:02:48.479Z,9.80
2022-11-04T12:11:37.946Z,9.70
2022-11-04T12:45:27.101Z,9.60
2022-11-04T13:02:18.664Z,9.50
2022-11-04T13:08:46.231Z,9.40
2022-11-04T13:17:59.975Z,9.20
2022-11-04T13:35:37.961Z,8.90
2022-11-04T13:45:51.852Z,8.60
2022-11-04T13:56:20.916Z,8.60
2022-11-04T13:59:21.741Z,8.50
2022-11-04T14:06:11.303Z,8.50
2022-11-04T14:09:32.843Z,8.40
2022-11-04T14:12:50.597Z,8.50
2022-11-04T14:33:54.958Z,8.40
2022-11-04T14:40:19.771Z,8.40
2022-11-04T14:46:39.523Z,8.30
2022-11-04T14:50:06.974Z,8.30
2022-11-04T15:06:55.531Z,8.20
2022-11-04T15:13:40.540Z,8.10
2022-11-04T16:05:51.483Z,7.40
2022-11-04T16:13:03.129Z,7.50
2022-11-04T16:15:37.029Z,7.40
2022-11-04T16:18:48.421Z,7.40
2022-11-04T16:26:02.320Z,7.50
2022-11-04T16:39:45.774Z,7.40
2022-11-04T16:42:46.556Z,7.40
2022-11-04T16:45:33.960Z,7.40
2022-11-04T16:51:32.619Z,7.40
2022-11-04T16:54:27.118Z,7.40
2022-11-04T16:57:07.184Z,7.40
2022-11-04T17:00:15.545Z,7.40
2022-11-04T17:02:46.996Z,7.40
2022-11-04T17:15:28.342Z,7.30
2022-11-04T17:24:40.128Z,7.20
2022-11-04T17:27:33.933Z,7.20
2022-11-04T17:36:07.306Z,7.20
2022-11-04T17:38:43.764Z,7.20
2022-11-04T17:45:31.448Z,7.20
2022-11-04T17:48:21.007Z,7.20
2022-11-04T18:00:04.187Z,7.10
2022-11-04T18:06:17.252Z,7.10
2022-11-04T18:52:24.341Z,7.20
2022-11-04T19:15:46.611Z,7.10
2022-11-04T19:19:09.672Z,7.10
2022-11-04T19:41:38.046Z,7.20
2022-11-04T19:47:25.819Z,7.00
2022-11-04T19:49:55.764Z,7.00
2022-11-04T19:53:09.845Z,7.00
2022-11-04T19:56:02.759Z,7.00
2022-11-04T19:59:25.367Z,6.90
2022-11-04T20:01:55.533Z,6.90
2022-11-04T20:12:25.634Z,6.70
2022-11-04T20:38:24.930Z,6.50
2022-11-04T21:43:35.954Z,6.80
2022-11-04T21:57:15.967Z,6.90
2022-11-04T22:00:06.754Z,6.80
2022-11-04T22:03:23.095Z,6.80
2022-11-04T22:08:54.501Z,6.60
2022-11-04T22:11:31.579Z,6.90
2022-11-04T22:14:40.023Z,6.90
2022-11-04T22:17:35.941Z,6.90
2022-11-04T22:23:30.764Z,6.90
2022-11-04T22:26:21.842Z,6.90
2022-11-04T22:29:25.509Z,6.90
2022-11-04T22:32:05.960Z,6.90
2022-11-04T22:34:39.236Z,6.90
2022-11-04T22:37:11.647Z,6.90
2022-11-04T22:39:49.871Z,6.90
2022-11-04T22:42:21.736Z,6.90
2022-11-04T22:44:57.111Z,6.90
2022-11-04T22:47:28.559Z,6.90
2022-11-04T22:50:05.155Z,6.90
2022-11-04T22:52:36.311Z,6.90
2022-11-04T22:55:06.339Z,6.90
2022-11-04T22:57:38.401Z,6.80
2022-11-04T23:00:09.386Z,6.90
2022-11-04T23:02:39.820Z,6.90
2022-11-04T23:05:12.197Z,6.90
2022-11-04T23:07:42.273Z,6.90
2022-11-04T23:10:32.033Z,6.90
2022-11-04T23:13:28.153Z,6.90
2022-11-04T23:16:14.624Z,6.90
2022-11-04T23:18:43.999Z,6.90
2022-11-04T23:21:37.098Z,6.90
2022-11-04T23:24:29.777Z,6.90
2022-11-04T23:26:58.729Z,7.00
2022-11-04T23:29:44.552Z,7.00
2022-11-04T23:32:13.391Z,6.90
2022-11-04T23:35:13.828Z,7.00
2022-11-04T23:37:49.006Z,7.00
2022-11-04T23:40:20.895Z,7.00
2022-11-04T23:42:49.485Z,7.00
2022-11-04T23:45:37.465Z,7.00
2022-11-04T23:48:24.991Z,7.00
2022-11-04T23:51:19.556Z,7.00
2022-11-04T23:54:10.071Z,7.00
2022-11-04T23:57:00.022Z,7.00
2022-11-04T23:59:47.067Z,7.00
